Time;durP1;ratioP1;P1;durP2;ratioP2;P2;SDS_P1;SDS_P2;PMS_P1;PMS_P2;Temp;Humidity;BMP_temperature;BMP_pressure;BME280_temperature;BME280_humidity;BME280_pressure;Samples;Min_cycle;Max_cycle;Signal;HPM_P1;HPM_P2
2023/08/23 00:00:33;;;;;;;9.40;7.87;;;;;;;;;;5102251;28;20191;-76
2023/08/23 00:02:59;;;;;;;8.53;7.57;;;;;;;;;;5101591;28;20716;-76
2023/08/23 00:05:26;;;;;;;13.57;7.77;;;;;;;;;;5101716;28;20214;-76
2023/08/23 00:07:53;;;;;;;9.03;8.10;;;;;;;;;;5103611;28;20250;-76
2023/08/23 00:10:21;;;;;;;8.43;7.63;;;;;;;;;;5094464;28;20681;-76
2023/08/23 00:12:49;;;;;;;8.13;7.50;;;;;;;;;;5102280;28;20211;-76
2023/08/23 00:15:16;;;;;;;8.73;7.40;;;;;;;;;;5097943;28;20199;-76
2023/08/23 00:17:43;;;;;;;10.40;8.87;;;;;;;;;;5114329;28;20286;-76
2023/08/23 00:20:11;;;;;;;9.67;8.80;;;;;;;;;;5104238;28;20203;-76
2023/08/23 00:22:38;;;;;;;14.63;8.73;;;;;;;;;;5093514;28;20694;-76
2023/08/23 00:25:05;;;;;;;9.37;8.43;;;;;;;;;;5093413;28;20196;-76
2023/08/23 00:27:34;;;;;;;17.23;8.93;;;;;;;;;;5104670;28;20210;-76
2023/08/23 00:30:00;;;;;;;12.40;7.80;;;;;;;;;;5114342;28;20198;-76
2023/08/23 00:32:27;;;;;;;10.10;8.20;;;;;;;;;;5114161;28;20200;-76
2023/08/23 00:34:54;;;;;;;8.33;7.63;;;;;;;;;;5111253;28;20655;-76
2023/08/23 00:37:21;;;;;;;9.63;8.73;;;;;;;;;;5100763;28;20557;-76
2023/08/23 00:39:47;;;;;;;10.30;8.47;;;;;;;;;;5113148;28;20199;-76
2023/08/23 00:42:14;;;;;;;8.23;7.50;;;;;;;;;;5109703;28;20216;-76
2023/08/23 00:44:42;;;;;;;11.70;8.90;;;;;;;;;;5093542;28;20196;-76
2023/08/23 00:47:09;;;;;;;9.47;8.57;;;;;;;;;;5095230;28;20199;-76
2023/08/23 00:49:36;;;;;;;21.10;10.87;;;;;;;;;;5108970;28;20196;-76
2023/08/23 00:52:04;;;;;;;10.07;9.13;;;;;;;;;;5110603;28;20231;-76
2023/08/23 00:54:31;;;;;;;8.73;7.93;;;;;;;;;;5102618;28;20236;-76
2023/08/23 00:56:59;;;;;;;9.27;8.47;;;;;;;;;;5108216;28;20629;-76
2023/08/23 00:59:26;;;;;;;9.13;8.43;;;;;;;;;;5113280;28;20194;-76
2023/08/23 01:01:54;;;;;;;16.40;9.17;;;;;;;;;;5113627;28;20215;-76
2023/08/23 01:04:21;;;;;;;11.67;8.67;;;;;;;;;;5096881;28;20545;-76
2023/08/23 01:06:55;;;;;;;8.97;8.23;;;;;;;;;;5110064;28;20207;-76
2023/08/23 01:09:32;;;;;;;9.53;7.57;;;;;;;;;;5092799;28;20661;-76
2023/08/23 01:12:06;;;;;;;20.00;9.37;;;;;;;;;;5112987;28;20191;-76
2023/08/23 01:14:42;;;;;;;10.10;9.10;;;;;;;;;;5112996;28;20662;-76
2023/08/23 01:17:11;;;;;;;8.53;7.73;;;;;;;;;;5103876;28;20692;-76
2023/08/23 01:19:43;;;;;;;15.83;9.93;;;;;;;;;;5113389;28;20253;-76
2023/08/23 01:22:11;;;;;;;9.67;8.40;;;;;;;;;;5092792;28;21567;-76
2023/08/23 01:24:41;;;;;;;8.97;8.27;;;;;;;;;;5105906;28;20199;-76
2023/08/23 01:27:07;;;;;;;9.20;8.30;;;;;;;;;;5104753;28;20206;-76
2023/08/23 01:29:34;;;;;;;9.83;8.93;;;;;;;;;;5100486;28;20260;-76
2023/08/23 01:32:08;;;;;;;10.00;8.97;;;;;;;;;;5105410;28;20686;-75
2023/08/23 01:34:38;;;;;;;8.93;8.13;;;;;;;;;;5094877;28;20200;-76
2023/08/23 01:37:05;;;;;;;9.50;8.63;;;;;;;;;;5112880;28;20203;-76
2023/08/23 01:39:33;;;;;;;10.40;9.23;;;;;;;;;;5095995;28;20207;-76
2023/08/23 01:42:01;;;;;;;8.67;7.87;;;;;;;;;;5100366;28;20227;-75
2023/08/23 01:44:29;;;;;;;10.73;9.50;;;;;;;;;;5098350;28;20673;-75
2023/08/23 01:46:56;;;;;;;8.77;8.07;;;;;;;;;;5112606;28;20196;-76
2023/08/23 01:49:23;;;;;;;9.40;8.40;;;;;;;;;;5112672;28;20195;-76
2023/08/23 01:51:49;;;;;;;10.27;9.20;;;;;;;;;;5111873;28;20604;-75
2023/08/23 01:54:16;;;;;;;12.37;10.13;;;;;;;;;;5092811;28;20586;-75
2023/08/23 01:56:43;;;;;;;9.47;8.57;;;;;;;;;;5092176;28;20211;-75
2023/08/23 01:59:11;;;;;;;10.40;9.33;;;;;;;;;;5100165;28;20207;-76
2023/08/23 02:01:39;;;;;;;9.67;8.87;;;;;;;;;;5094610;28;20200;-76
2023/08/23 02:04:06;;;;;;;10.43;9.30;;;;;;;;;;5112236;28;20219;-75
2023/08/23 02:06:32;;;;;;;10.20;8.23;;;;;;;;;;5104095;28;20197;-76
2023/08/23 02:08:59;;;;;;;10.30;9.40;;;;;;;;;;5109366;28;20207;-75
2023/08/23 02:11:26;;;;;;;10.00;9.10;;;;;;;;;;5091898;28;20196;-75
2023/08/23 02:13:52;;;;;;;10.53;9.60;;;;;;;;;;5091890;28;20200;-76
2023/08/23 02:16:21;;;;;;;9.60;8.67;;;;;;;;;;5096125;28;20191;-76
2023/08/23 02:18:47;;;;;;;11.53;9.87;;;;;;;;;;5103388;28;20204;-76
2023/08/23 02:21:14;;;;;;;10.00;9.10;;;;;;;;;;5103485;28;20205;-75
2023/08/23 02:23:41;;;;;;;10.03;9.20;;;;;;;;;;5097339;28;20224;-76
2023/08/23 02:26:08;;;;;;;10.40;9.30;;;;;;;;;;5091301;28;20210;-76
2023/08/23 02:28:34;;;;;;;13.77;10.57;;;;;;;;;;5091506;28;20581;-76
2023/08/23 02:31:02;;;;;;;14.07;10.27;;;;;;;;;;5092031;28;20199;-76
2023/08/23 02:33:31;;;;;;;10.13;9.23;;;;;;;;;;5096447;28;20223;-76
2023/08/23 02:35:58;;;;;;;10.13;9.30;;;;;;;;;;5107323;28;20196;-75
2023/08/23 02:38:24;;;;;;;12.57;11.30;;;;;;;;;;5099468;28;20199;-76
2023/08/23 02:40:51;;;;;;;11.20;10.20;;;;;;;;;;5112001;28;20269;-75
2023/08/23 02:43:18;;;;;;;11.13;10.03;;;;;;;;;;5104149;28;20265;-76
2023/08/23 02:45:45;;;;;;;10.50;9.60;;;;;;;;;;5108581;28;20202;-76
2023/08/23 02:48:12;;;;;;;12.30;9.53;;;;;;;;;;5099931;28;20209;-75
2023/08/23 02:50:40;;;;;;;10.20;9.30;;;;;;;;;;5098215;28;20569;-76
2023/08/23 02:53:07;;;;;;;11.27;9.87;;;;;;;;;;5111037;28;20202;-76
2023/08/23 02:55:36;;;;;;;10.87;9.87;;;;;;;;;;5098622;28;20204;-76
2023/08/23 02:58:02;;;;;;;9.67;8.90;;;;;;;;;;5098961;28;20231;-76
2023/08/23 03:00:31;;;;;;;10.67;9.43;;;;;;;;;;5111253;28;20187;-76
2023/08/23 03:02:57;;;;;;;10.50;9.60;;;;;;;;;;5099782;28;20216;-76
2023/08/23 03:05:24;;;;;;;10.93;9.93;;;;;;;;;;5104098;28;20191;-76
2023/08/23 03:07:52;;;;;;;11.33;10.20;;;;;;;;;;5115137;28;20199;-75
2023/08/23 03:10:19;;;;;;;11.60;10.60;;;;;;;;;;5115498;28;20669;-76
2023/08/23 03:12:46;;;;;;;11.40;9.57;;;;;;;;;;5115096;28;20611;-75
2023/08/23 03:15:13;;;;;;;10.63;9.43;;;;;;;;;;5110203;28;20192;-75
2023/08/23 03:17:39;;;;;;;11.57;9.90;;;;;;;;;;5094514;28;20198;-75
2023/08/23 03:20:07;;;;;;;10.43;9.30;;;;;;;;;;5110903;28;20546;-75
2023/08/23 03:22:34;;;;;;;10.60;9.50;;;;;;;;;;5095411;28;20227;-75
2023/08/23 03:25:02;;;;;;;9.57;8.77;;;;;;;;;;5094567;28;20204;-76
2023/08/23 03:27:29;;;;;;;11.87;10.03;;;;;;;;;;5112201;28;20227;-75
2023/08/23 03:29:56;;;;;;;9.73;8.90;;;;;;;;;;5109625;28;20616;-75
2023/08/23 03:32:22;;;;;;;10.23;9.20;;;;;;;;;;5094896;28;20201;-75
2023/08/23 03:34:51;;;;;;;10.23;9.33;;;;;;;;;;5099583;28;20188;-75
2023/08/23 03:37:17;;;;;;;11.83;10.13;;;;;;;;;;5098257;28;20693;-76
2023/08/23 03:39:44;;;;;;;10.03;9.03;;;;;;;;;;5099340;28;20615;-76
2023/08/23 03:42:12;;;;;;;11.27;10.23;;;;;;;;;;5094575;28;20250;-76
2023/08/23 03:44:39;;;;;;;10.03;8.97;;;;;;;;;;5103262;28;20215;-76
2023/08/23 03:47:06;;;;;;;12.07;9.83;;;;;;;;;;5111459;28;20196;-76
2023/08/23 03:49:35;;;;;;;10.70;9.57;;;;;;;;;;5100982;28;20188;-76
2023/08/23 03:52:02;;;;;;;11.93;9.50;;;;;;;;;;5097261;28;20575;-76
2023/08/23 03:54:32;;;;;;;11.20;10.30;;;;;;;;;;5114235;28;20223;-76
2023/08/23 03:56:58;;;;;;;11.53;10.33;;;;;;;;;;5105520;28;20204;-81
2023/08/23 03:59:26;;;;;;;11.53;10.37;;;;;;;;;;5111400;28;20203;-80
2023/08/23 04:01:53;;;;;;;13.07;10.70;;;;;;;;;;5108548;28;20203;-80
2023/08/23 04:04:20;;;;;;;10.77;9.50;;;;;;;;;;5104197;28;20215;-80
2023/08/23 04:06:47;;;;;;;10.90;9.93;;;;;;;;;;5104551;28;20192;-80
2023/08/23 04:09:14;;;;;;;11.67;10.47;;;;;;;;;;5104830;28;20283;-80
2023/08/23 04:11:41;;;;;;;11.63;10.37;;;;;;;;;;5105453;28;20282;-79
2023/08/23 04:14:08;;;;;;;11.07;10.07;;;;;;;;;;5107818;28;20199;-79
2023/08/23 04:16:36;;;;;;;10.93;9.93;;;;;;;;;;5113604;28;20213;-79
2023/08/23 04:19:03;;;;;;;11.37;10.10;;;;;;;;;;5101543;28;20200;-80
2023/08/23 04:21:30;;;;;;;10.63;9.73;;;;;;;;;;5105641;28;20674;-80
2023/08/23 04:23:57;;;;;;;10.47;9.57;;;;;;;;;;5093052;28;20224;-80
2023/08/23 04:26:24;;;;;;;10.07;9.07;;;;;;;;;;5098139;28;20207;-79
2023/08/23 04:28:51;;;;;;;10.07;8.93;;;;;;;;;;5095120;28;20207;-80
2023/08/23 04:31:18;;;;;;;9.17;7.80;;;;;;;;;;5113661;28;20256;-79
2023/08/23 04:33:46;;;;;;;10.20;8.50;;;;;;;;;;5113567;28;20260;-79
2023/08/23 04:36:13;;;;;;;9.63;8.73;;;;;;;;;;5107244;28;20229;-79
2023/08/23 04:38:40;;;;;;;12.30;8.67;;;;;;;;;;5103048;28;20681;-79
2023/08/23 04:41:07;;;;;;;9.23;8.33;;;;;;;;;;5114654;28;20196;-78
2023/08/23 04:43:34;;;;;;;9.93;9.13;;;;;;;;;;5114431;28;20610;-79
2023/08/23 04:46:01;;;;;;;9.40;8.60;;;;;;;;;;5108711;28;20198;-79
2023/08/23 04:48:27;;;;;;;10.83;9.83;;;;;;;;;;5107871;28;20286;-80
2023/08/23 04:50:56;;;;;;;14.23;8.60;;;;;;;;;;5112303;28;20196;-79
2023/08/23 04:53:23;;;;;;;9.17;8.40;;;;;;;;;;5095410;28;20257;-79
2023/08/23 04:55:50;;;;;;;11.43;8.57;;;;;;;;;;5102270;28;20207;-79
2023/08/23 04:58:17;;;;;;;10.03;9.13;;;;;;;;;;5098655;28;20196;-79
2023/08/23 05:00:45;;;;;;;9.50;8.73;;;;;;;;;;5103493;28;20204;-79
2023/08/23 05:03:11;;;;;;;9.90;9.07;;;;;;;;;;5108607;28;20309;-79
2023/08/23 05:05:38;;;;;;;10.57;9.07;;;;;;;;;;5103040;28;20208;-79
2023/08/23 05:08:08;;;;;;;9.93;9.00;;;;;;;;;;5105723;28;20245;-79
2023/08/23 05:10:35;;;;;;;9.27;8.47;;;;;;;;;;5102268;28;20249;-79
2023/08/23 05:13:03;;;;;;;9.43;8.63;;;;;;;;;;5099545;28;20198;-79
2023/08/23 05:15:31;;;;;;;10.80;8.93;;;;;;;;;;5101222;28;20210;-79
2023/08/23 05:17:59;;;;;;;9.27;8.37;;;;;;;;;;5104754;28;20196;-79
2023/08/23 05:20:26;;;;;;;9.87;9.07;;;;;;;;;;5105104;28;20202;-79
2023/08/23 05:22:52;;;;;;;8.77;8.17;;;;;;;;;;5094599;28;20262;-79
2023/08/23 05:25:21;;;;;;;8.77;8.17;;;;;;;;;;5104100;28;20199;-79
2023/08/23 05:27:47;;;;;;;8.60;7.93;;;;;;;;;;5100291;28;20195;-80
2023/08/23 05:30:14;;;;;;;9.87;8.97;;;;;;;;;;5112205;28;20210;-79
2023/08/23 05:32:41;;;;;;;9.27;8.43;;;;;;;;;;5109827;28;20211;-79
2023/08/23 05:35:08;;;;;;;9.30;8.50;;;;;;;;;;5100686;28;20196;-79
2023/08/23 05:37:35;;;;;;;9.80;8.97;;;;;;;;;;5110500;28;20221;-79
2023/08/23 05:40:03;;;;;;;9.43;8.60;;;;;;;;;;5102126;28;20572;-79
2023/08/23 05:42:31;;;;;;;9.47;8.57;;;;;;;;;;5099550;28;20233;-79
2023/08/23 05:44:58;;;;;;;10.97;9.43;;;;;;;;;;5111794;28;20633;-81
2023/08/23 05:47:25;;;;;;;8.40;7.67;;;;;;;;;;5108032;28;20219;-79
2023/08/23 05:49:52;;;;;;;9.20;8.20;;;;;;;;;;5100038;28;20638;-78
2023/08/23 05:52:18;;;;;;;9.87;8.97;;;;;;;;;;5096230;28;20192;-78
2023/08/23 05:54:45;;;;;;;9.60;8.73;;;;;;;;;;5100518;28;20244;-79
2023/08/23 05:57:12;;;;;;;9.57;8.47;;;;;;;;;;5111424;28;20195;-79
2023/08/23 05:59:40;;;;;;;10.93;8.77;;;;;;;;;;5111633;28;20207;-80
2023/08/23 06:02:07;;;;;;;13.13;8.27;;;;;;;;;;5108981;28;20179;-79
2023/08/23 06:04:34;;;;;;;10.07;7.83;;;;;;;;;;5111154;28;20265;-79
2023/08/23 06:07:03;;;;;;;12.50;8.07;;;;;;;;;;5106571;28;20203;-79
2023/08/23 06:09:32;;;;;;;9.70;8.80;;;;;;;;;;5099342;28;20196;-79
2023/08/23 06:11:59;;;;;;;9.33;8.43;;;;;;;;;;5112113;28;20723;-79
2023/08/23 06:14:26;;;;;;;8.93;8.03;;;;;;;;;;5109952;28;20195;-79
2023/08/23 06:16:54;;;;;;;8.83;7.93;;;;;;;;;;5111211;28;20206;-78
2023/08/23 06:19:21;;;;;;;8.95;8.15;;;;;;;;;;5095871;28;20654;-78
2023/08/23 06:21:48;;;;;;;8.47;7.70;;;;;;;;;;5103704;28;20201;-79
2023/08/23 06:24:14;;;;;;;9.93;8.47;;;;;;;;;;5105094;28;20223;-78
2023/08/23 06:26:41;;;;;;;8.77;7.97;;;;;;;;;;5101170;28;20203;-78
2023/08/23 06:29:08;;;;;;;9.20;8.27;;;;;;;;;;5108651;28;20192;-79
2023/08/23 06:31:35;;;;;;;10.67;9.60;;;;;;;;;;5100803;28;20607;-79
2023/08/23 06:34:03;;;;;;;11.40;8.20;;;;;;;;;;5096463;28;20196;-79
2023/08/23 06:36:31;;;;;;;9.02;8.23;;;;;;;;;;5102555;28;20203;-78
2023/08/23 06:38:57;;;;;;;9.10;8.23;;;;;;;;;;5105780;28;20191;-79
2023/08/23 06:41:24;;;;;;;11.10;7.40;;;;;;;;;;5101533;28;20202;-78
2023/08/23 06:43:59;;;;;;;8.38;7.47;;;;;;;;;;5098269;28;20215;-78
2023/08/23 06:46:26;;;;;;;9.13;8.25;;;;;;;;;;5101744;28;20646;-78
2023/08/23 06:48:53;;;;;;;11.10;8.55;;;;;;;;;;5107153;28;20676;-78
2023/08/23 06:51:21;;;;;;;11.75;8.00;;;;;;;;;;5110995;28;20199;-79
2023/08/23 06:53:48;;;;;;;10.73;7.72;;;;;;;;;;5098945;28;20693;-78
2023/08/23 06:56:15;;;;;;;9.40;8.10;;;;;;;;;;5109921;28;20554;-79
2023/08/23 06:58:41;;;;;;;8.05;7.45;;;;;;;;;;5097987;28;20649;-79
2023/08/23 07:01:14;;;;;;;9.30;8.48;;;;;;;;;;5109893;28;20199;-79
2023/08/23 07:03:40;;;;;;;8.60;7.53;;;;;;;;;;5097466;28;20204;-79
2023/08/23 07:06:07;;;;;;;7.53;6.93;;;;;;;;;;5100708;28;20197;-79
2023/08/23 07:08:36;;;;;;;8.20;7.60;;;;;;;;;;5109189;28;20198;-79
2023/08/23 07:11:02;;;;;;;7.70;7.15;;;;;;;;;;5110761;28;20208;-79
2023/08/23 07:13:31;;;;;;;8.55;7.50;;;;;;;;;;5098550;28;20191;-79
2023/08/23 07:15:58;;;;;;;8.52;7.72;;;;;;;;;;5110125;28;20223;-80
2023/08/23 07:18:25;;;;;;;7.80;7.20;;;;;;;;;;5110202;28;20199;-79
2023/08/23 07:20:52;;;;;;;8.30;7.32;;;;;;;;;;5100786;28;20215;-78
2023/08/23 07:23:18;;;;;;;7.03;6.43;;;;;;;;;;5099357;28;20191;-79
2023/08/23 07:25:46;;;;;;;8.77;6.72;;;;;;;;;;5096028;28;20298;-79
2023/08/23 07:28:13;;;;;;;7.97;7.25;;;;;;;;;;5108815;28;20200;-79
2023/08/23 07:30:45;;;;;;;8.90;6.95;;;;;;;;;;5098106;28;20279;-79
2023/08/23 07:33:11;;;;;;;8.13;7.30;;;;;;;;;;5101270;28;20200;-79
2023/08/23 07:35:38;;;;;;;10.95;8.68;;;;;;;;;;5103410;28;20626;-79
2023/08/23 07:38:05;;;;;;;8.68;7.88;;;;;;;;;;5091943;28;20212;-79
2023/08/23 07:40:32;;;;;;;7.70;6.97;;;;;;;;;;5094862;28;20200;-79
2023/08/23 07:43:00;;;;;;;7.35;6.40;;;;;;;;;;5108019;28;20195;-81
2023/08/23 07:45:27;;;;;;;7.05;6.47;;;;;;;;;;5098611;28;20246;-78
2023/08/23 07:47:53;;;;;;;8.68;7.65;;;;;;;;;;5099721;28;20196;-79
2023/08/23 07:50:20;;;;;;;7.95;7.35;;;;;;;;;;5098729;28;20637;-79
2023/08/23 07:52:47;;;;;;;8.07;6.93;;;;;;;;;;5095584;28;20201;-78
2023/08/23 07:55:14;;;;;;;7.10;6.50;;;;;;;;;;5112551;28;20310;-78
2023/08/23 07:57:41;;;;;;;8.43;6.28;;;;;;;;;;5112311;28;20207;-79
2023/08/23 08:00:11;;;;;;;8.20;6.30;;;;;;;;;;5101726;28;20203;-78
2023/08/23 08:02:38;;;;;;;8.48;6.50;;;;;;;;;;5113494;28;22131;-79
2023/08/23 08:05:07;;;;;;;8.70;6.65;;;;;;;;;;5099872;28;20254;-79
2023/08/23 08:07:34;;;;;;;6.95;6.35;;;;;;;;;;5100411;28;20287;-80
2023/08/23 08:10:01;;;;;;;7.22;6.60;;;;;;;;;;5114296;28;20582;-80
2023/08/23 08:12:28;;;;;;;6.50;5.97;;;;;;;;;;5113111;28;20199;-79
2023/08/23 08:14:54;;;;;;;6.65;5.30;;;;;;;;;;5096118;28;20192;-79
2023/08/23 08:17:22;;;;;;;13.00;6.80;;;;;;;;;;5106998;28;20206;-79
2023/08/23 08:19:48;;;;;;;6.60;6.10;;;;;;;;;;5101043;28;20195;-79
2023/08/23 08:22:15;;;;;;;6.80;6.25;;;;;;;;;;5101963;28;20709;-79
2023/08/23 08:24:42;;;;;;;6.30;5.82;;;;;;;;;;5107726;28;20228;-78
2023/08/23 08:27:08;;;;;;;7.05;6.45;;;;;;;;;;5104715;28;20210;-78
2023/08/23 08:29:35;;;;;;;8.23;6.22;;;;;;;;;;5112202;28;20293;-79
2023/08/23 08:32:02;;;;;;;9.82;7.13;;;;;;;;;;5100434;28;20270;-79
2023/08/23 08:34:31;;;;;;;6.72;6.18;;;;;;;;;;5111428;28;20199;-78
2023/08/23 08:36:58;;;;;;;9.95;5.85;;;;;;;;;;5111640;28;20199;-79
2023/08/23 08:39:25;;;;;;;6.30;5.75;;;;;;;;;;5100990;28;20192;-79
2023/08/23 08:41:52;;;;;;;6.63;5.88;;;;;;;;;;5110360;28;20206;-79
2023/08/23 08:44:18;;;;;;;6.97;5.55;;;;;;;;;;5100531;28;20678;-79
2023/08/23 08:46:45;;;;;;;6.55;5.65;;;;;;;;;;5098782;28;20211;-78
2023/08/23 08:49:12;;;;;;;6.90;6.10;;;;;;;;;;5105747;28;20242;-78
2023/08/23 08:51:42;;;;;;;8.00;6.03;;;;;;;;;;5105922;28;20196;-79
2023/08/23 08:54:09;;;;;;;6.18;5.57;;;;;;;;;;5098585;28;20265;-79
2023/08/23 08:56:36;;;;;;;5.70;5.18;;;;;;;;;;5101777;28;20252;-79
2023/08/23 08:59:03;;;;;;;6.13;5.55;;;;;;;;;;5093744;28;20193;-79
2023/08/23 09:01:33;;;;;;;9.00;6.32;;;;;;;;;;5093544;28;20205;-80
2023/08/23 09:03:59;;;;;;;6.60;5.88;;;;;;;;;;5111200;28;20196;-78
2023/08/23 09:06:27;;;;;;;9.00;5.05;;;;;;;;;;5097102;28;20192;-79
2023/08/23 09:08:56;;;;;;;7.35;5.70;;;;;;;;;;5093023;28;20200;-78
2023/08/23 09:11:22;;;;;;;6.30;5.70;;;;;;;;;;5098340;28;20195;-79
2023/08/23 09:13:49;;;;;;;9.05;6.55;;;;;;;;;;5101219;28;20200;-79
2023/08/23 09:16:16;;;;;;;6.53;5.80;;;;;;;;;;5108107;28;20739;-78
2023/08/23 09:18:44;;;;;;;6.55;5.97;;;;;;;;;;5103925;28;20204;-78
2023/08/23 09:21:12;;;;;;;6.15;5.53;;;;;;;;;;5095269;28;20279;-79
2023/08/23 09:23:38;;;;;;;7.25;6.53;;;;;;;;;;5092393;28;20199;-80
2023/08/23 09:26:08;;;;;;;6.75;6.13;;;;;;;;;;5107965;28;20850;-79
2023/08/23 09:28:35;;;;;;;6.90;6.25;;;;;;;;;;5101072;28;20204;-79
2023/08/23 09:31:01;;;;;;;6.30;5.80;;;;;;;;;;5093665;28;20742;-79
2023/08/23 09:33:28;;;;;;;9.20;6.20;;;;;;;;;;5104233;28;20191;-79
2023/08/23 09:35:58;;;;;;;5.75;5.35;;;;;;;;;;5095495;28;20226;-79
2023/08/23 09:38:25;;;;;;;6.05;5.45;;;;;;;;;;5105114;28;20734;-79
2023/08/23 09:40:52;;;;;;;5.82;5.20;;;;;;;;;;5108228;28;20207;-79
2023/08/23 09:43:22;;;;;;;6.28;5.68;;;;;;;;;;5104282;28;20198;-79
2023/08/23 09:45:49;;;;;;;6.75;5.70;;;;;;;;;;5111378;28;20223;-79
2023/08/23 09:48:17;;;;;;;6.88;6.28;;;;;;;;;;5109310;28;20199;-79
2023/08/23 09:50:45;;;;;;;6.20;5.70;;;;;;;;;;5110748;28;20203;-79
2023/08/23 09:53:15;;;;;;;6.47;5.97;;;;;;;;;;5098739;28;20204;-79
2023/08/23 09:55:43;;;;;;;8.77;6.75;;;;;;;;;;5110607;28;20195;-78
2023/08/23 09:58:10;;;;;;;6.90;5.68;;;;;;;;;;5110742;28;20608;-79
2023/08/23 10:00:39;;;;;;;6.38;5.82;;;;;;;;;;5106722;28;20196;-78
2023/08/23 10:03:09;;;;;;;6.93;6.32;;;;;;;;;;5095869;28;20196;-79
2023/08/23 10:05:39;;;;;;;7.13;6.45;;;;;;;;;;5093147;28;20297;-79
2023/08/23 10:08:06;;;;;;;6.18;5.63;;;;;;;;;;5108628;28;20199;-79
2023/08/23 10:10:33;;;;;;;6.75;6.20;;;;;;;;;;5093998;28;20205;-79
2023/08/23 10:13:04;;;;;;;7.35;6.35;;;;;;;;;;5108474;28;20650;-78
2023/08/23 10:15:33;;;;;;;6.20;5.72;;;;;;;;;;5108596;28;20677;-78
2023/08/23 10:18:03;;;;;;;5.80;5.32;;;;;;;;;;5095093;28;20196;-78
2023/08/23 10:20:34;;;;;;;6.70;6.20;;;;;;;;;;5091984;28;20200;-79
2023/08/23 10:23:01;;;;;;;6.55;6.05;;;;;;;;;;5108651;28;20574;-79
2023/08/23 10:25:27;;;;;;;6.43;5.82;;;;;;;;;;5110548;28;20740;-79
2023/08/23 10:27:56;;;;;;;7.45;5.90;;;;;;;;;;5110644;28;20211;-79
2023/08/23 10:30:24;;;;;;;6.47;6.05;;;;;;;;;;5109551;28;20199;-79
2023/08/23 10:32:51;;;;;;;6.45;5.85;;;;;;;;;;5109644;28;20199;-79
2023/08/23 10:35:31;;;;;;;6.05;5.38;;;;;;;;;;5098387;28;20196;-79
2023/08/23 10:37:58;;;;;;;6.38;5.85;;;;;;;;;;5091996;28;20285;-79
2023/08/23 10:40:28;;;;;;;7.30;6.38;;;;;;;;;;5093244;28;20192;-78
2023/08/23 10:42:55;;;;;;;8.07;6.47;;;;;;;;;;5103263;28;20201;-79
2023/08/23 10:45:22;;;;;;;6.72;6.15;;;;;;;;;;5103271;28;20704;-78
2023/08/23 10:47:50;;;;;;;8.05;5.88;;;;;;;;;;5092453;28;20616;-79
2023/08/23 10:50:18;;;;;;;7.60;7.00;;;;;;;;;;5105615;28;20195;-79
2023/08/23 10:52:47;;;;;;;6.40;5.90;;;;;;;;;;5101237;28;20195;-79
2023/08/23 10:55:14;;;;;;;6.35;5.80;;;;;;;;;;5097754;28;20230;-79
2023/08/23 10:57:41;;;;;;;7.07;6.47;;;;;;;;;;5109967;28;20200;-79
2023/08/23 11:00:09;;;;;;;6.32;5.90;;;;;;;;;;5108576;28;20195;-79
2023/08/23 11:02:36;;;;;;;7.20;5.70;;;;;;;;;;5092240;28;20555;-79
2023/08/23 11:05:03;;;;;;;6.28;5.72;;;;;;;;;;5104728;28;20216;-80
2023/08/23 11:07:30;;;;;;;6.57;6.18;;;;;;;;;;5102371;28;20236;-80
2023/08/23 11:09:58;;;;;;;7.35;6.65;;;;;;;;;;5104587;28;20667;-79
2023/08/23 11:12:25;;;;;;;6.63;5.70;;;;;;;;;;5102492;28;20199;-79
2023/08/23 11:14:52;;;;;;;7.35;6.60;;;;;;;;;;5097584;28;20195;-79
2023/08/23 11:17:20;;;;;;;6.40;5.80;;;;;;;;;;5109468;28;20199;-79
2023/08/23 11:19:46;;;;;;;7.13;6.63;;;;;;;;;;5104523;28;20206;-79
2023/08/23 11:22:13;;;;;;;6.93;6.18;;;;;;;;;;5093738;28;20211;-80
2023/08/23 11:24:40;;;;;;;6.53;5.90;;;;;;;;;;5114860;28;20203;-79
2023/08/23 11:27:14;;;;;;;7.20;6.35;;;;;;;;;;5111484;28;20242;-79
2023/08/23 11:29:42;;;;;;;7.68;6.53;;;;;;;;;;5097056;28;20227;-79
2023/08/23 11:32:09;;;;;;;6.10;5.60;;;;;;;;;;5097061;28;20207;-79
2023/08/23 11:34:39;;;;;;;8.50;6.47;;;;;;;;;;5106893;28;20231;-79
2023/08/23 11:37:08;;;;;;;7.18;6.50;;;;;;;;;;5098900;28;20220;-79
2023/08/23 11:39:35;;;;;;;6.93;6.28;;;;;;;;;;5103147;28;20734;-79
2023/08/23 11:42:01;;;;;;;6.88;6.38;;;;;;;;;;5101089;28;20623;-78
2023/08/23 11:44:31;;;;;;;7.18;6.43;;;;;;;;;;5112998;28;20561;-78
2023/08/23 11:46:59;;;;;;;8.50;6.40;;;;;;;;;;5099609;28;20219;-79
2023/08/23 11:49:27;;;;;;;7.03;6.43;;;;;;;;;;5094272;28;20200;-78
2023/08/23 11:51:54;;;;;;;6.90;6.30;;;;;;;;;;5105502;28;20184;-79
2023/08/23 11:54:22;;;;;;;6.70;6.10;;;;;;;;;;5094421;28;20220;-78
2023/08/23 11:56:48;;;;;;;8.32;6.25;;;;;;;;;;5097394;28;20273;-79
2023/08/23 11:59:15;;;;;;;6.60;6.07;;;;;;;;;;5104084;28;20200;-79
2023/08/23 12:01:44;;;;;;;7.03;6.43;;;;;;;;;;5109597;28;20202;-79
2023/08/23 12:04:12;;;;;;;6.07;5.47;;;;;;;;;;5103519;28;20191;-79
2023/08/23 12:06:40;;;;;;;6.63;6.13;;;;;;;;;;5107903;28;20219;-79
2023/08/23 12:09:08;;;;;;;6.13;5.57;;;;;;;;;;5105043;28;20196;-80
2023/08/23 12:11:34;;;;;;;6.35;5.90;;;;;;;;;;5099550;28;20199;-79
2023/08/23 12:14:03;;;;;;;5.90;5.50;;;;;;;;;;5101523;28;20204;-79
2023/08/23 12:16:31;;;;;;;6.85;5.95;;;;;;;;;;5113528;28;20249;-78
2023/08/23 12:18:59;;;;;;;9.48;6.68;;;;;;;;;;5114095;28;20291;-79
2023/08/23 12:21:26;;;;;;;7.57;6.55;;;;;;;;;;5109294;28;20220;-79
2023/08/23 12:23:53;;;;;;;7.00;6.30;;;;;;;;;;5106804;28;20191;-79
2023/08/23 12:26:24;;;;;;;6.82;6.22;;;;;;;;;;5101221;28;20226;-79
2023/08/23 12:28:50;;;;;;;8.40;6.03;;;;;;;;;;5100862;28;20207;-79
2023/08/23 12:31:17;;;;;;;6.10;5.60;;;;;;;;;;5106117;28;20196;-79
2023/08/23 12:33:44;;;;;;;7.05;5.50;;;;;;;;;;5106559;28;20199;-79
2023/08/23 12:36:14;;;;;;;6.38;5.38;;;;;;;;;;5105413;28;20250;-78
2023/08/23 12:38:41;;;;;;;6.07;5.57;;;;;;;;;;5106732;28;20195;-79
2023/08/23 12:41:08;;;;;;;5.75;5.25;;;;;;;;;;5101420;28;20203;-79
2023/08/23 12:43:34;;;;;;;7.70;5.80;;;;;;;;;;5110094;28;20199;-78
2023/08/23 12:46:01;;;;;;;7.53;6.07;;;;;;;;;;5105823;28;20228;-78
2023/08/23 12:48:28;;;;;;;6.68;5.28;;;;;;;;;;5093892;28;20196;-78
2023/08/23 12:50:55;;;;;;;6.50;6.00;;;;;;;;;;5101922;28;20199;-78
2023/08/23 12:53:23;;;;;;;6.93;5.43;;;;;;;;;;5109910;28;20650;-78
2023/08/23 12:55:51;;;;;;;6.20;5.80;;;;;;;;;;5099774;28;20200;-78
2023/08/23 12:58:18;;;;;;;8.23;5.97;;;;;;;;;;5109143;28;20237;-78
2023/08/23 13:00:44;;;;;;;7.18;6.68;;;;;;;;;;5102513;28;20195;-78
2023/08/23 13:03:11;;;;;;;6.93;6.22;;;;;;;;;;5109922;28;20203;-79
2023/08/23 13:05:39;;;;;;;6.18;5.72;;;;;;;;;;5111675;28;20719;-79
2023/08/23 13:08:07;;;;;;;6.15;5.68;;;;;;;;;;5096974;28;20195;-78
2023/08/23 13:10:35;;;;;;;6.82;6.32;;;;;;;;;;5100968;28;20195;-79
2023/08/23 13:13:03;;;;;;;6.50;6.00;;;;;;;;;;5099724;28;20192;-78
2023/08/23 13:15:31;;;;;;;7.40;5.82;;;;;;;;;;5102359;28;20684;-78
2023/08/23 13:17:57;;;;;;;6.43;5.93;;;;;;;;;;5104495;28;20282;-78
2023/08/23 13:20:24;;;;;;;6.28;5.78;;;;;;;;;;5103898;28;20697;-78
2023/08/23 13:22:51;;;;;;;6.20;5.72;;;;;;;;;;5095359;28;20200;-79
2023/08/23 13:25:18;;;;;;;6.75;5.97;;;;;;;;;;5094568;28;20192;-79
2023/08/23 13:27:47;;;;;;;6.28;5.78;;;;;;;;;;5093832;28;20328;-78
2023/08/23 13:30:13;;;;;;;7.50;6.63;;;;;;;;;;5093136;28;20200;-79
2023/08/23 13:32:40;;;;;;;6.50;5.60;;;;;;;;;;5105018;28;20618;-79
2023/08/23 13:35:08;;;;;;;6.78;6.18;;;;;;;;;;5105007;28;20210;-78
2023/08/23 13:37:35;;;;;;;6.63;6.13;;;;;;;;;;5099584;28;20207;-78
2023/08/23 13:40:04;;;;;;;6.28;5.72;;;;;;;;;;5100895;28;20200;-78
2023/08/23 13:42:31;;;;;;;7.30;6.28;;;;;;;;;;5110153;28;20626;-78
2023/08/23 13:44:59;;;;;;;6.35;5.95;;;;;;;;;;5112501;28;20276;-79
2023/08/23 13:47:26;;;;;;;6.70;6.10;;;;;;;;;;5110200;28;20228;-79
2023/08/23 13:49:53;;;;;;;6.63;6.03;;;;;;;;;;5099143;28;20199;-79
2023/08/23 13:52:20;;;;;;;7.30;6.68;;;;;;;;;;5100547;28;20201;-79
2023/08/23 13:54:46;;;;;;;8.23;5.93;;;;;;;;;;5111704;28;20230;-79
2023/08/23 13:57:13;;;;;;;8.18;6.50;;;;;;;;;;5111584;28;20192;-79
2023/08/23 13:59:40;;;;;;;6.57;6.05;;;;;;;;;;5109942;28;20199;-79
2023/08/23 14:02:10;;;;;;;6.57;5.97;;;;;;;;;;5100210;28;20286;-78
2023/08/23 14:04:37;;;;;;;6.10;5.70;;;;;;;;;;5106812;28;20211;-79
2023/08/23 14:07:04;;;;;;;7.15;5.72;;;;;;;;;;5092367;28;20269;-78
2023/08/23 14:09:32;;;;;;;6.30;5.75;;;;;;;;;;5106716;28;20199;-78
2023/08/23 14:11:59;;;;;;;6.10;5.60;;;;;;;;;;5109758;28;20199;-78
2023/08/23 14:14:26;;;;;;;7.75;5.78;;;;;;;;;;5110735;28;20196;-79
2023/08/23 14:16:53;;;;;;;6.70;5.93;;;;;;;;;;5101642;28;20210;-78
2023/08/23 14:19:21;;;;;;;7.22;6.63;;;;;;;;;;5108185;28;20192;-80
2023/08/23 14:21:48;;;;;;;9.52;6.30;;;;;;;;;;5092785;28;20261;-79
2023/08/23 14:24:15;;;;;;;6.15;5.65;;;;;;;;;;5093080;28;20204;-80
2023/08/23 14:26:42;;;;;;;6.32;5.90;;;;;;;;;;5105917;28;20212;-79
2023/08/23 14:29:09;;;;;;;6.80;6.07;;;;;;;;;;5087501;28;20192;-77
2023/08/23 14:31:35;;;;;;;6.45;5.95;;;;;;;;;;5101730;28;20192;-77
2023/08/23 14:34:02;;;;;;;6.60;5.93;;;;;;;;;;5104811;28;20203;-78
2023/08/23 14:36:31;;;;;;;6.90;6.40;;;;;;;;;;5110617;28;20278;-79
2023/08/23 14:38:58;;;;;;;7.28;6.72;;;;;;;;;;5107406;28;20593;-79